createdAt,value
2022-08-19T00:01:55.759Z,2.42
2022-08-19T00:04:25.949Z,2.20
2022-08-19T00:06:53.579Z,2.13
2022-08-19T00:09:22.060Z,2.30
2022-08-19T00:11:49.087Z,2.10
2022-08-19T00:14:17.538Z,2.00
2022-08-19T00:16:46.788Z,1.65
2022-08-19T00:19:13.482Z,2.15
2022-08-19T00:21:40.681Z,1.98
2022-08-19T00:24:09.764Z,2.30
2022-08-19T00:26:37.298Z,2.40
2022-08-19T00:29:04.971Z,1.92
2022-08-19T00:31:32.428Z,2.03
2022-08-19T00:33:59.357Z,2.28
2022-08-19T00:36:26.436Z,2.45
2022-08-19T00:38:53.323Z,2.10
2022-08-19T00:41:22.380Z,2.05
2022-08-19T00:44:02.010Z,2.35
2022-08-19T00:46:29.696Z,2.42
2022-08-19T00:48:58.468Z,2.75
2022-08-19T00:51:27.780Z,2.13
2022-08-19T00:53:57.808Z,1.77
2022-08-19T00:56:25.029Z,2.72
2022-08-19T00:58:51.773Z,2.92
2022-08-19T01:01:18.630Z,2.90
2022-08-19T01:03:56.777Z,2.78
2022-08-19T01:06:28.244Z,2.30
2022-08-19T01:08:56.203Z,2.85
2022-08-19T01:11:23.204Z,2.28
2022-08-19T01:13:52.949Z,2.50
2022-08-19T01:16:22.442Z,2.20
2022-08-19T01:18:50.055Z,3.00
2022-08-19T01:21:30.830Z,2.83
2022-08-19T01:23:58.042Z,2.90
2022-08-19T01:26:26.192Z,2.35
2022-08-19T01:28:58.343Z,2.35
2022-08-19T01:31:33.093Z,2.35
2022-08-19T01:34:01.572Z,2.50
2022-08-19T01:36:31.641Z,2.03
2022-08-19T01:38:59.195Z,1.90
2022-08-19T01:41:26.474Z,2.55
2022-08-19T01:44:03.828Z,3.00
2022-08-19T01:46:41.073Z,2.42
2022-08-19T01:49:09.002Z,2.53
2022-08-19T01:51:39.821Z,2.53
2022-08-19T01:54:09.058Z,2.88
2022-08-19T01:56:35.854Z,2.70
2022-08-19T01:59:09.256Z,2.47
2022-08-19T02:01:36.649Z,2.47
2022-08-19T02:04:03.769Z,2.90
2022-08-19T02:06:31.045Z,2.38
2022-08-19T02:08:58.379Z,2.80
2022-08-19T02:11:32.531Z,2.92
2022-08-19T02:14:02.600Z,2.40
2022-08-19T02:16:29.747Z,2.95
2022-08-19T02:18:56.336Z,2.28
2022-08-19T02:21:24.421Z,2.55
2022-08-19T02:23:52.046Z,2.30
2022-08-19T02:26:19.635Z,2.38
2022-08-19T02:28:46.923Z,2.10
2022-08-19T02:31:18.837Z,2.67
2022-08-19T02:33:46.281Z,2.75
2022-08-19T02:36:15.527Z,3.47
2022-08-19T02:38:47.075Z,2.97
2022-08-19T02:41:29.752Z,3.10
2022-08-19T02:44:26.362Z,3.08
2022-08-19T02:46:47.965Z,3.13
2022-08-19T02:49:17.204Z,3.20
2022-08-19T02:51:46.007Z,3.25
2022-08-19T02:54:14.817Z,3.10
2022-08-19T02:56:42.766Z,2.90
2022-08-19T02:59:11.330Z,2.60
2022-08-19T03:01:41.285Z,3.17
2022-08-19T03:04:10.060Z,2.95
2022-08-19T03:06:38.862Z,2.67
2022-08-19T03:09:05.531Z,2.47
2022-08-19T03:11:33.142Z,2.63
2022-08-19T03:14:01.029Z,2.22
2022-08-19T03:16:33.208Z,2.78
2022-08-19T03:19:02.394Z,3.08
2022-08-19T03:21:32.023Z,2.75
2022-08-19T03:24:02.041Z,2.92
2022-08-19T03:26:30.031Z,2.72
2022-08-19T03:28:57.859Z,3.38
2022-08-19T03:31:44.084Z,4.15
2022-08-19T03:34:18.173Z,3.47
2022-08-19T03:36:45.715Z,3.75
2022-08-19T03:39:12.645Z,4.22
2022-08-19T03:41:45.475Z,3.67
2022-08-19T03:44:21.728Z,3.90
2022-08-19T03:46:54.841Z,4.53
2022-08-19T03:49:27.083Z,4.57
2022-08-19T03:51:57.374Z,3.80
2022-08-19T03:54:25.717Z,3.25
2022-08-19T03:56:54.679Z,3.65
2022-08-19T03:59:26.018Z,3.55
2022-08-19T04:01:57.752Z,4.72
2022-08-19T04:04:27.250Z,3.47
2022-08-19T04:06:56.710Z,3.55
2022-08-19T04:09:23.723Z,3.88
2022-08-19T04:11:56.833Z,3.33
2022-08-19T04:14:27.724Z,3.60
2022-08-19T04:16:54.372Z,3.65
2022-08-19T04:19:21.169Z,3.60
2022-08-19T04:21:50.895Z,4.35
2022-08-19T04:24:18.303Z,3.40
2022-08-19T04:26:45.984Z,3.63
2022-08-19T04:29:16.430Z,4.10
2022-08-19T04:31:45.214Z,4.15
2022-08-19T04:34:14.117Z,4.72
2022-08-19T04:36:42.451Z,3.78
2022-08-19T04:39:15.801Z,4.10
2022-08-19T04:42:02.198Z,3.40
2022-08-19T04:44:31.555Z,4.07
2022-08-19T04:47:00.428Z,3.80
2022-08-19T04:49:28.633Z,4.18
2022-08-19T04:51:56.287Z,3.55
2022-08-19T04:54:37.778Z,4.15
2022-08-19T04:57:10.485Z,4.63
2022-08-19T04:59:39.059Z,4.13
2022-08-19T05:02:08.627Z,4.03
2022-08-19T05:04:39.490Z,4.07
2022-08-19T05:07:07.694Z,4.47
2022-08-19T05:09:58.528Z,4.40
2022-08-19T05:12:22.434Z,4.35
2022-08-19T05:14:57.553Z,3.70
2022-08-19T05:17:27.634Z,4.53
2022-08-19T05:20:14.167Z,4.72
2022-08-19T05:25:13.713Z,4.28
2022-08-19T05:27:42.064Z,4.25
2022-08-19T05:30:10.135Z,4.30
2022-08-19T05:32:37.182Z,4.15
2022-08-19T05:35:05.550Z,4.22
2022-08-19T05:37:32.459Z,4.10
2022-08-19T05:39:59.350Z,4.45
2022-08-19T05:42:26.414Z,4.72
2022-08-19T05:44:53.186Z,4.22
2022-08-19T05:47:21.052Z,4.47
2022-08-19T05:49:48.791Z,4.78
2022-08-19T05:52:18.597Z,4.03
2022-08-19T05:54:50.916Z,4.95
2022-08-19T05:57:19.031Z,5.20
2022-08-19T05:59:56.748Z,4.70
2022-08-19T06:02:29.793Z,4.82
2022-08-19T06:04:56.479Z,4.15
2022-08-19T06:07:23.714Z,4.50
2022-08-19T06:10:00.118Z,5.00
2022-08-19T06:12:35.393Z,7.95
2022-08-19T06:15:11.296Z,7.90
2022-08-19T06:17:38.461Z,8.90
2022-08-19T06:20:09.618Z,8.77
2022-08-19T06:22:44.880Z,9.70
2022-08-19T06:25:13.612Z,9.65
2022-08-19T06:27:58.523Z,9.52
2022-08-19T06:30:27.596Z,9.07
2022-08-19T06:32:54.825Z,9.05
2022-08-19T06:35:21.651Z,9.02
2022-08-19T06:37:48.251Z,9.90
2022-08-19T06:40:15.664Z,9.95
2022-08-19T06:42:53.017Z,9.20
2022-08-19T06:45:21.475Z,9.43
2022-08-19T06:47:56.974Z,9.20
2022-08-19T06:50:25.047Z,9.02
2022-08-19T06:52:52.384Z,9.00
2022-08-19T06:55:20.166Z,9.38
2022-08-19T06:57:47.400Z,8.88
2022-08-19T07:00:15.010Z,9.15
2022-08-19T07:02:48.166Z,7.93
2022-08-19T07:05:22.672Z,8.70
2022-08-19T07:07:49.291Z,8.88
2022-08-19T07:10:18.349Z,8.27
2022-08-19T07:12:45.311Z,8.75
2022-08-19T07:15:12.835Z,9.45
2022-08-19T07:17:41.790Z,8.52
2022-08-19T07:20:10.204Z,8.13
2022-08-19T07:22:40.837Z,6.85
2022-08-19T07:25:09.528Z,7.60
2022-08-19T07:27:36.524Z,8.80
2022-08-19T07:30:03.904Z,7.00
2022-08-19T07:32:31.701Z,6.47
2022-08-19T07:35:01.408Z,6.25
2022-08-19T07:37:33.129Z,5.88
2022-08-19T07:40:01.550Z,6.60
2022-08-19T07:42:30.398Z,5.90
2022-08-19T07:44:57.180Z,6.10
2022-08-19T07:47:49.524Z,7.60
2022-08-19T07:50:12.461Z,6.68
2022-08-19T07:52:40.317Z,6.85
2022-08-19T07:55:11.363Z,7.18
2022-08-19T07:57:56.338Z,7.57
2022-08-19T08:00:24.604Z,6.47
2022-08-19T08:02:52.975Z,7.15
2022-08-19T08:05:43.648Z,8.25
2022-08-19T08:08:32.146Z,6.47
2022-08-19T08:10:59.977Z,6.50
2022-08-19T08:13:27.948Z,6.82
2022-08-19T08:15:56.055Z,7.22
2022-08-19T08:18:27.698Z,7.18
2022-08-19T08:20:58.481Z,7.40
2022-08-19T08:23:29.572Z,7.75
2022-08-19T08:25:58.701Z,7.70
2022-08-19T08:28:29.340Z,9.70
2022-08-19T08:30:57.890Z,9.75
2022-08-19T08:33:32.780Z,7.80
2022-08-19T08:36:04.238Z,9.35
2022-08-19T08:38:38.954Z,6.93
2022-08-19T08:41:32.851Z,7.57
2022-08-19T08:43:59.740Z,6.78
2022-08-19T08:46:52.762Z,7.20
2022-08-19T08:49:34.429Z,7.60
2022-08-19T08:52:22.101Z,5.90
2022-08-19T08:54:55.285Z,6.57
2022-08-19T08:57:30.576Z,7.05
2022-08-19T09:00:15.657Z,6.45
2022-08-19T09:02:43.870Z,7.93
2022-08-19T09:05:23.488Z,7.43
2022-08-19T09:08:23.309Z,8.63
2022-08-19T09:10:55.378Z,8.85
2022-08-19T09:13:37.553Z,8.68
2022-08-19T09:16:15.491Z,8.57
2022-08-19T09:18:54.596Z,8.20
2022-08-19T09:21:30.536Z,7.50
2022-08-19T09:24:00.715Z,7.32
2022-08-19T09:26:48.263Z,9.93
2022-08-19T09:29:22.564Z,10.25
2022-08-19T09:31:50.786Z,8.50
2022-08-19T09:34:21.029Z,10.00
2022-08-19T09:36:56.374Z,10.63
2022-08-19T09:39:23.313Z,10.97
2022-08-19T09:41:50.908Z,9.65
2022-08-19T09:44:19.132Z,11.30
2022-08-19T09:46:48.178Z,10.35
2022-08-19T09:49:17.929Z,10.63
2022-08-19T09:51:50.392Z,10.88
2022-08-19T09:54:22.441Z,9.98
2022-08-19T09:56:51.273Z,9.65
2022-08-19T09:59:17.989Z,9.50
2022-08-19T10:01:44.741Z,9.65
2022-08-19T10:04:19.692Z,9.32
2022-08-19T10:06:53.413Z,9.73
2022-08-19T10:09:33.919Z,8.52
2022-08-19T10:12:03.841Z,7.72
2022-08-19T10:14:31.487Z,8.07
2022-08-19T10:16:59.337Z,9.05
2022-08-19T10:19:26.606Z,8.55
2022-08-19T10:21:55.655Z,8.68
2022-08-19T10:24:28.551Z,7.47
2022-08-19T10:26:55.790Z,6.35
2022-08-19T10:29:32.035Z,6.50
2022-08-19T10:32:09.697Z,7.07
2022-08-19T10:34:48.029Z,6.82
2022-08-19T10:37:18.066Z,7.22
2022-08-19T10:39:51.584Z,7.32
2022-08-19T10:42:19.471Z,6.95
2022-08-19T10:44:47.636Z,6.68
2022-08-19T10:47:24.765Z,6.40
2022-08-19T10:50:13.495Z,7.10
2022-08-19T10:52:49.249Z,7.05
2022-08-19T10:55:37.813Z,7.15
2022-08-19T10:58:04.979Z,7.75
2022-08-19T11:00:32.393Z,7.35
2022-08-19T11:02:59.554Z,8.18
2022-08-19T11:05:26.249Z,8.00
2022-08-19T11:07:53.341Z,7.97
2022-08-19T11:10:22.496Z,5.60
2022-08-19T11:12:49.738Z,7.43
2022-08-19T11:15:16.776Z,7.85
2022-08-19T11:17:44.157Z,7.97
2022-08-19T11:20:13.593Z,7.25
2022-08-19T11:22:41.924Z,7.35
2022-08-19T11:25:11.326Z,7.22
2022-08-19T11:27:40.316Z,6.22
2022-08-19T11:30:08.545Z,6.80
2022-08-19T11:32:44.493Z,8.80
2022-08-19T11:35:13.915Z,5.97
2022-08-19T11:37:41.534Z,7.80
2022-08-19T11:40:09.058Z,9.10
2022-08-19T11:42:54.045Z,8.90
2022-08-19T11:45:20.776Z,8.35
2022-08-19T11:47:48.197Z,7.40
2022-08-19T11:50:16.078Z,8.68
2022-08-19T11:52:43.618Z,8.70
2022-08-19T11:55:10.873Z,7.20
2022-08-19T11:57:38.790Z,7.57
2022-08-19T12:00:08.105Z,6.20
2022-08-19T12:02:34.913Z,7.45
2022-08-19T12:05:06.157Z,6.38
2022-08-19T12:07:35.957Z,6.30
2022-08-19T12:10:03.655Z,6.32
2022-08-19T12:12:30.401Z,6.78
2022-08-19T12:14:59.308Z,5.28
2022-08-19T12:17:29.625Z,5.47
2022-08-19T12:19:56.342Z,6.57
2022-08-19T12:22:23.289Z,6.05
2022-08-19T12:24:51.727Z,6.50
2022-08-19T12:27:32.016Z,6.80
2022-08-19T12:30:09.045Z,6.43
2022-08-19T12:32:35.799Z,6.25
2022-08-19T12:35:02.480Z,6.85
2022-08-19T12:37:29.177Z,7.13
2022-08-19T12:39:55.864Z,7.00
2022-08-19T12:42:23.534Z,6.47
2022-08-19T12:44:50.743Z,5.22
2022-08-19T12:47:17.964Z,5.35
2022-08-19T12:49:53.261Z,5.85
2022-08-19T12:52:27.983Z,7.18
2022-08-19T12:54:56.965Z,6.03
2022-08-19T12:57:32.317Z,5.57
2022-08-19T13:00:13.429Z,5.07
2022-08-19T13:02:46.518Z,5.53
2022-08-19T13:05:20.996Z,4.90
2022-08-19T13:07:48.018Z,5.47
2022-08-19T13:10:17.496Z,5.05
2022-08-19T13:12:45.557Z,5.22
2022-08-19T13:15:12.854Z,4.10
2022-08-19T13:17:42.466Z,4.43
2022-08-19T13:20:10.482Z,3.80
2022-08-19T13:22:38.616Z,3.67
2022-08-19T13:25:07.308Z,3.50
2022-08-19T13:27:34.442Z,3.58
2022-08-19T13:30:20.206Z,3.10
2022-08-19T13:33:05.714Z,3.22
2022-08-19T13:35:32.527Z,3.40
2022-08-19T13:37:59.522Z,2.85
2022-08-19T13:40:27.318Z,3.90
2022-08-19T13:42:58.694Z,3.08
2022-08-19T13:45:30.500Z,2.85
2022-08-19T13:47:59.913Z,3.47
2022-08-19T13:50:29.635Z,3.30
2022-08-19T13:52:57.205Z,2.88
2022-08-19T13:55:25.364Z,2.60
2022-08-19T13:57:53.977Z,3.50
2022-08-19T14:00:23.124Z,3.00
2022-08-19T14:02:52.451Z,3.00
2022-08-19T14:05:19.930Z,2.70
2022-08-19T14:07:46.602Z,2.58
2022-08-19T14:10:14.685Z,2.53
2022-08-19T14:12:41.409Z,2.42
2022-08-19T14:15:13.928Z,2.97
2022-08-19T14:17:44.941Z,2.45
2022-08-19T14:20:17.843Z,2.47
2022-08-19T14:22:46.898Z,2.92
2022-08-19T14:25:26.823Z,2.80
2022-08-19T14:27:53.974Z,2.72
2022-08-19T14:30:27.689Z,2.40
2022-08-19T14:32:55.708Z,3.20
2022-08-19T14:35:22.993Z,2.53
2022-08-19T14:37:51.036Z,2.30
2022-08-19T14:40:23.640Z,2.83
2022-08-19T14:42:50.337Z,2.72
2022-08-19T14:45:17.066Z,2.78
2022-08-19T14:47:45.322Z,3.60
2022-08-19T14:50:17.858Z,3.08
2022-08-19T14:52:49.862Z,2.85
2022-08-19T14:55:18.162Z,3.70
2022-08-19T14:57:45.843Z,4.25
2022-08-19T15:00:16.230Z,3.47
2022-08-19T15:02:45.022Z,4.43
2022-08-19T15:05:12.360Z,4.47
2022-08-19T15:07:40.269Z,5.18
2022-08-19T15:10:08.197Z,5.00
2022-08-19T15:12:36.421Z,4.75
2022-08-19T15:15:03.403Z,5.43
2022-08-19T15:17:32.362Z,4.70
2022-08-19T15:20:16.725Z,5.22
2022-08-19T15:22:43.482Z,5.20
2022-08-19T15:25:12.227Z,4.13
2022-08-19T15:27:40.629Z,4.35
2022-08-19T15:30:11.833Z,4.55
2022-08-19T15:32:40.003Z,3.90
2022-08-19T15:35:07.930Z,4.93
2022-08-19T15:37:37.571Z,5.20
2022-08-19T15:40:07.470Z,4.35
2022-08-19T15:42:36.371Z,4.28
2022-08-19T15:45:05.378Z,4.32
2022-08-19T15:47:35.253Z,4.20
2022-08-19T15:50:12.536Z,4.13
2022-08-19T15:52:55.184Z,3.95
2022-08-19T15:55:33.691Z,3.30
2022-08-19T15:58:28.648Z,3.50
2022-08-19T16:01:20.610Z,3.17
2022-08-19T16:04:14.573Z,3.78
2022-08-19T16:06:52.859Z,3.58
2022-08-19T16:09:27.342Z,2.90
2022-08-19T16:12:03.154Z,3.97
2022-08-19T16:14:32.637Z,4.30
2022-08-19T16:16:59.386Z,3.95
2022-08-19T16:19:26.358Z,3.65
2022-08-19T16:21:55.834Z,3.35
2022-08-19T16:24:26.354Z,4.10
2022-08-19T16:26:54.565Z,3.08
2022-08-19T16:29:33.776Z,3.78
2022-08-19T16:32:05.441Z,3.50
2022-08-19T16:34:33.570Z,4.03
2022-08-19T16:37:00.847Z,3.38
2022-08-19T16:39:28.412Z,3.80
2022-08-19T16:41:55.325Z,3.90
2022-08-19T16:44:22.083Z,3.95
2022-08-19T16:46:58.745Z,3.55
2022-08-19T16:49:53.975Z,4.25
2022-08-19T16:52:16.003Z,4.72
2022-08-19T16:54:43.787Z,4.40
2022-08-19T16:57:12.349Z,4.47
2022-08-19T16:59:42.575Z,5.40
2022-08-19T17:02:16.434Z,4.93
2022-08-19T17:04:43.291Z,4.78
2022-08-19T17:07:10.787Z,5.00
2022-08-19T17:09:38.037Z,4.57
2022-08-19T17:12:05.826Z,5.80
2022-08-19T17:14:33.191Z,4.90
2022-08-19T17:17:00.471Z,5.07
2022-08-19T17:19:28.146Z,5.00
2022-08-19T17:21:57.697Z,5.60
2022-08-19T17:24:24.380Z,4.97
2022-08-19T17:26:51.095Z,4.93
2022-08-19T17:29:17.791Z,4.53
2022-08-19T17:31:44.527Z,4.93
2022-08-19T17:34:11.270Z,5.38
2022-08-19T17:36:38.119Z,4.65
2022-08-19T17:39:05.552Z,5.00
2022-08-19T17:41:34.136Z,5.30
2022-08-19T17:44:02.410Z,5.40
2022-08-19T17:46:30.349Z,5.40
2022-08-19T17:48:58.281Z,4.38
2022-08-19T17:51:34.008Z,5.05
2022-08-19T17:54:02.331Z,5.15
2022-08-19T17:56:28.927Z,4.28
2022-08-19T17:59:00.066Z,4.15
2022-08-19T18:01:44.101Z,4.15
2022-08-19T18:04:18.677Z,4.20
2022-08-19T18:06:46.562Z,3.95
2022-08-19T18:11:52.594Z,4.97
2022-08-19T18:14:32.103Z,4.15
2022-08-19T18:17:09.946Z,4.88
2022-08-19T18:19:43.432Z,5.40
2022-08-19T18:22:36.283Z,5.10
2022-08-19T18:25:08.643Z,5.10
2022-08-19T18:27:35.643Z,4.50
2022-08-19T18:30:03.504Z,5.07
2022-08-19T18:32:34.648Z,5.03
2022-08-19T18:35:03.973Z,4.93
2022-08-19T18:37:31.638Z,5.18
2022-08-19T18:40:17.015Z,5.40
2022-08-19T18:43:23.551Z,4.57
2022-08-19T18:48:55.791Z,5.45
2022-08-19T18:51:28.179Z,6.45
2022-08-19T18:53:58.606Z,6.97
2022-08-19T18:56:31.067Z,7.40
2022-08-19T18:59:01.949Z,7.55
2022-08-19T19:01:36.554Z,7.63
2022-08-19T19:04:07.426Z,7.68
2022-08-19T19:06:40.516Z,7.18
2022-08-19T19:09:09.810Z,7.38
2022-08-19T19:11:39.470Z,7.47
2022-08-19T19:14:27.454Z,7.50
2022-08-19T19:17:01.870Z,7.38
2022-08-19T19:19:29.623Z,6.68
2022-08-19T19:21:57.751Z,6.35
2022-08-19T19:24:30.322Z,6.40
2022-08-19T19:27:00.192Z,6.03
2022-08-19T19:29:27.525Z,5.90
2022-08-19T19:31:55.913Z,5.50
2022-08-19T19:34:29.493Z,5.75
2022-08-19T19:36:57.183Z,6.03
2022-08-19T19:39:44.837Z,5.28
2022-08-19T19:42:13.733Z,5.43
2022-08-19T19:44:50.257Z,4.90
2022-08-19T19:47:18.638Z,5.68
2022-08-19T19:50:13.685Z,5.78
2022-08-19T19:52:38.704Z,5.75
2022-08-19T19:55:05.902Z,5.95
2022-08-19T19:57:32.640Z,5.50
2022-08-19T19:59:59.367Z,4.43
2022-08-19T20:02:27.607Z,4.35
2022-08-19T20:04:56.150Z,4.90
2022-08-19T20:07:42.750Z,4.50
2022-08-19T20:10:09.600Z,4.20
2022-08-19T20:12:36.283Z,4.50
2022-08-19T20:15:04.648Z,5.22
2022-08-19T20:17:32.465Z,4.15
2022-08-19T20:19:59.504Z,3.95
2022-08-19T20:22:26.184Z,4.88
2022-08-19T20:24:55.519Z,4.30
2022-08-19T20:27:23.584Z,4.88
2022-08-19T20:29:52.523Z,4.13
2022-08-19T20:32:19.168Z,3.85
2022-08-19T20:34:48.970Z,4.43
2022-08-19T20:37:16.172Z,4.47
2022-08-19T20:39:43.022Z,4.68
2022-08-19T20:42:09.800Z,4.68
2022-08-19T20:44:36.974Z,4.93
2022-08-19T20:47:04.248Z,5.05
2022-08-19T20:49:31.721Z,4.57
2022-08-19T20:51:58.579Z,4.22
2022-08-19T20:54:26.396Z,4.50
2022-08-19T20:56:53.831Z,4.93
2022-08-19T20:59:22.073Z,5.63
2022-08-19T21:01:51.647Z,4.65
2022-08-19T21:04:19.885Z,5.70
2022-08-19T21:06:46.951Z,4.25
2022-08-19T21:09:14.136Z,4.30
2022-08-19T21:11:41.128Z,4.70
2022-08-19T21:14:08.013Z,4.78
2022-08-19T21:16:34.736Z,4.43
2022-08-19T21:19:01.588Z,4.30
2022-08-19T21:21:28.534Z,3.83
2022-08-19T21:23:55.189Z,4.45
2022-08-19T21:26:21.997Z,3.65
2022-08-19T21:28:48.606Z,4.38
2022-08-19T21:31:17.653Z,3.85
2022-08-19T21:33:45.001Z,4.75
2022-08-19T21:36:11.974Z,4.43
2022-08-19T21:38:38.579Z,4.00
2022-08-19T21:41:06.588Z,4.97
2022-08-19T21:43:34.954Z,4.57
2022-08-19T21:46:02.100Z,4.47
2022-08-19T21:48:28.721Z,4.40
2022-08-19T21:50:55.513Z,4.57
2022-08-19T21:53:22.980Z,5.07
2022-08-19T21:55:53.594Z,4.70
2022-08-19T21:58:29.249Z,4.95
2022-08-19T22:00:59.612Z,4.28
2022-08-19T22:03:27.193Z,4.45
2022-08-19T22:05:53.816Z,5.18
2022-08-19T22:08:20.448Z,4.45
2022-08-19T22:10:49.484Z,4.90
2022-08-19T22:13:18.012Z,4.72
2022-08-19T22:15:46.184Z,5.18
2022-08-19T22:18:13.651Z,6.20
2022-08-19T22:20:40.492Z,5.07
2022-08-19T22:23:07.849Z,5.60
2022-08-19T22:25:40.634Z,4.63
2022-08-19T22:28:11.097Z,5.15
2022-08-19T22:30:42.314Z,4.47
2022-08-19T22:33:16.905Z,4.57
2022-08-19T22:35:45.582Z,4.93
2022-08-19T22:38:13.256Z,4.68
2022-08-19T22:40:43.570Z,5.55
2022-08-19T22:43:15.042Z,5.25
2022-08-19T22:45:43.266Z,4.60
2022-08-19T22:48:12.211Z,4.32
2022-08-19T22:50:40.201Z,4.60
2022-08-19T22:53:09.367Z,5.05
2022-08-19T22:55:37.955Z,5.18
2022-08-19T22:58:05.480Z,4.72
2022-08-19T23:00:33.007Z,4.57
2022-08-19T23:03:01.510Z,4.60
2022-08-19T23:05:29.469Z,4.68
2022-08-19T23:07:58.069Z,4.78
2022-08-19T23:10:26.708Z,4.82
2022-08-19T23:12:56.799Z,4.90
2022-08-19T23:15:28.121Z,4.50
2022-08-19T23:17:57.910Z,5.80
2022-08-19T23:20:29.872Z,4.97
2022-08-19T23:22:57.221Z,5.05
2022-08-19T23:25:27.592Z,5.47
2022-08-19T23:28:13.259Z,5.47
2022-08-19T23:30:44.457Z,5.28
2022-08-19T23:33:24.928Z,6.22
2022-08-19T23:36:02.170Z,6.18
2022-08-19T23:38:30.284Z,6.25
2022-08-19T23:41:00.747Z,5.93
2022-08-19T23:43:29.627Z,6.18
2022-08-19T23:46:01.866Z,6.13
2022-08-19T23:48:37.418Z,5.88
2022-08-19T23:51:06.921Z,6.65
2022-08-19T23:53:34.227Z,5.60
2022-08-19T23:56:00.869Z,6.90
2022-08-19T23:58:30.241Z,6.43
